sensor_id;sensor_type;location;lat;lon;timestamp;pressure;altitude;pressure_sealevel;temperature;humidity
34586;BME280;20816;50.950;11.108;2023-05-02T00:00:49;98360.19;;;11.49;86.27
34586;BME280;20816;50.950;11.108;2023-05-02T00:03:15;98353.91;;;11.54;86.27
34586;BME280;20816;50.950;11.108;2023-05-02T00:05:43;98355.09;;;11.43;86.91
34586;BME280;20816;50.950;11.108;2023-05-02T00:08:10;98355.09;;;11.43;87.42
34586;BME280;20816;50.950;11.108;2023-05-02T00:10:37;98346.41;;;11.41;87.37
34586;BME280;20816;50.950;11.108;2023-05-02T00:13:04;98339.75;;;11.28;87.62
34586;BME280;20816;50.950;11.108;2023-05-02T00:15:30;98352.09;;;11.26;88.16
34586;BME280;20816;50.950;11.108;2023-05-02T00:17:57;98348.66;;;11.24;88.56
34586;BME280;20816;50.950;11.108;2023-05-02T00:20:24;98354.34;;;11.09;88.70
34586;BME280;20816;50.950;11.108;2023-05-02T00:22:50;98347.81;;;11.22;88.54
34586;BME280;20816;50.950;11.108;2023-05-02T00:25:17;98355.22;;;11.09;89.33
34586;BME280;20816;50.950;11.108;2023-05-02T00:27:44;98349.09;;;11.09;89.48
34586;BME280;20816;50.950;11.108;2023-05-02T00:30:12;98351.97;;;11.00;89.68
34586;BME280;20816;50.950;11.108;2023-05-02T00:32:39;98352.78;;;11.02;90.10
34586;BME280;20816;50.950;11.108;2023-05-02T00:35:07;98359.03;;;10.98;89.92
34586;BME280;20816;50.950;11.108;2023-05-02T00:37:33;98354.63;;;11.00;90.19
34586;BME280;20816;50.950;11.108;2023-05-02T00:40:01;98356.34;;;11.01;89.63
34586;BME280;20816;50.950;11.108;2023-05-02T00:42:28;98353.81;;;10.96;90.02
34586;BME280;20816;50.950;11.108;2023-05-02T00:44:59;98356.75;;;10.85;90.35
34586;BME280;20816;50.950;11.108;2023-05-02T00:47:26;98364.53;;;10.88;90.16
34586;BME280;20816;50.950;11.108;2023-05-02T00:49:52;98362.06;;;10.82;90.97
34586;BME280;20816;50.950;11.108;2023-05-02T00:52:19;98358.63;;;10.80;91.15
34586;BME280;20816;50.950;11.108;2023-05-02T00:54:46;98357.06;;;10.73;91.62
34586;BME280;20816;50.950;11.108;2023-05-02T00:57:12;98364.22;;;10.68;91.61
34586;BME280;20816;50.950;11.108;2023-05-02T00:59:39;98354.72;;;10.62;92.40
34586;BME280;20816;50.950;11.108;2023-05-02T01:07:31;98369.63;;;10.62;92.41
34586;BME280;20816;50.950;11.108;2023-05-02T01:13:07;98367.34;;;10.48;93.13
34586;BME280;20816;50.950;11.108;2023-05-02T01:15:37;98370.00;;;10.47;93.43
34586;BME280;20816;50.950;11.108;2023-05-02T01:18:08;98378.97;;;10.38;93.78
34586;BME280;20816;50.950;11.108;2023-05-02T01:20:37;98380.97;;;10.28;94.17
34586;BME280;20816;50.950;11.108;2023-05-02T01:23:24;98377.59;;;10.23;95.71
34586;BME280;20816;50.950;11.108;2023-05-02T01:31:11;98384.88;;;10.48;95.90
34586;BME280;20816;50.950;11.108;2023-05-02T01:33:39;98391.75;;;10.53;95.92
34586;BME280;20816;50.950;11.108;2023-05-02T01:36:13;98389.69;;;10.64;94.81
34586;BME280;20816;50.950;11.108;2023-05-02T01:38:49;98385.31;;;10.65;95.30
34586;BME280;20816;50.950;11.108;2023-05-02T01:41:17;98384.19;;;10.74;95.08
34586;BME280;20816;50.950;11.108;2023-05-02T01:43:44;98395.53;;;10.77;95.12
34586;BME280;20816;50.950;11.108;2023-05-02T01:46:13;98391.22;;;10.73;94.56
34586;BME280;20816;50.950;11.108;2023-05-02T01:48:43;98392.13;;;10.72;95.30
34586;BME280;20816;50.950;11.108;2023-05-02T01:51:14;98400.09;;;10.69;94.81
34586;BME280;20816;50.950;11.108;2023-05-02T01:53:42;98390.50;;;10.68;95.26
34586;BME280;20816;50.950;11.108;2023-05-02T01:56:09;98395.75;;;10.68;95.39
34586;BME280;20816;50.950;11.108;2023-05-02T01:58:36;98412.34;;;10.70;95.23
34586;BME280;20816;50.950;11.108;2023-05-02T02:01:04;98408.16;;;10.63;95.87
34586;BME280;20816;50.950;11.108;2023-05-02T02:03:31;98411.59;;;10.65;95.46
34586;BME280;20816;50.950;11.108;2023-05-02T02:06:00;98416.25;;;10.54;96.05
34586;BME280;20816;50.950;11.108;2023-05-02T02:08:27;98415.34;;;10.55;96.42
34586;BME280;20816;50.950;11.108;2023-05-02T02:10:58;98416.97;;;10.60;96.20
34586;BME280;20816;50.950;11.108;2023-05-02T02:13:29;98424.81;;;10.62;96.47
34586;BME280;20816;50.950;11.108;2023-05-02T02:16:01;98424.00;;;10.60;96.84
34586;BME280;20816;50.950;11.108;2023-05-02T02:18:31;98422.28;;;10.59;96.29
34586;BME280;20816;50.950;11.108;2023-05-02T02:21:01;98426.53;;;10.63;96.66
34586;BME280;20816;50.950;11.108;2023-05-02T02:23:29;98425.69;;;10.62;96.45
34586;BME280;20816;50.950;11.108;2023-05-02T02:26:00;98422.19;;;10.62;96.59
34586;BME280;20816;50.950;11.108;2023-05-02T02:28:27;98426.72;;;10.55;97.12
34586;BME280;20816;50.950;11.108;2023-05-02T02:30:54;98436.22;;;10.61;96.78
34586;BME280;20816;50.950;11.108;2023-05-02T02:33:24;98433.56;;;10.62;96.95
34586;BME280;20816;50.950;11.108;2023-05-02T02:39:04;98435.19;;;10.68;96.99
34586;BME280;20816;50.950;11.108;2023-05-02T02:41:54;98436.09;;;10.67;97.36
34586;BME280;20816;50.950;11.108;2023-05-02T02:47:30;98448.16;;;10.74;97.62
34586;BME280;20816;50.950;11.108;2023-05-02T02:50:10;98447.28;;;10.74;97.22
34586;BME280;20816;50.950;11.108;2023-05-02T02:53:02;98452.59;;;10.72;97.59
34586;BME280;20816;50.950;11.108;2023-05-02T02:56:13;98451.69;;;10.73;98.27
34586;BME280;20816;50.950;11.108;2023-05-02T03:01:04;98466.41;;;10.80;99.05
34586;BME280;20816;50.950;11.108;2023-05-02T03:03:32;98461.19;;;10.79;99.49
34586;BME280;20816;50.950;11.108;2023-05-02T03:06:00;98463.78;;;10.80;99.84
34586;BME280;20816;50.950;11.108;2023-05-02T03:08:43;98467.03;;;10.91;100.00
34586;BME280;20816;50.950;11.108;2023-05-02T03:11:10;98469.75;;;10.87;100.00
34586;BME280;20816;50.950;11.108;2023-05-02T03:13:36;98466.34;;;10.83;100.00
34586;BME280;20816;50.950;11.108;2023-05-02T03:16:32;98468.97;;;10.83;100.00
34586;BME280;20816;50.950;11.108;2023-05-02T03:19:00;98467.16;;;10.85;100.00
34586;BME280;20816;50.950;11.108;2023-05-02T03:21:27;98474.28;;;10.80;100.00
34586;BME280;20816;50.950;11.108;2023-05-02T03:23:53;98469.19;;;10.74;100.00
34586;BME280;20816;50.950;11.108;2023-05-02T03:26:20;98479.88;;;10.68;100.00
34586;BME280;20816;50.950;11.108;2023-05-02T03:28:47;98476.97;;;10.79;100.00
34586;BME280;20816;50.950;11.108;2023-05-02T03:31:14;98476.19;;;10.75;100.00
34586;BME280;20816;50.950;11.108;2023-05-02T03:33:41;98488.50;;;10.73;100.00
34586;BME280;20816;50.950;11.108;2023-05-02T03:36:08;98475.34;;;10.73;100.00
34586;BME280;20816;50.950;11.108;2023-05-02T03:38:34;98488.50;;;10.73;100.00
34586;BME280;20816;50.950;11.108;2023-05-02T03:41:01;98491.19;;;10.70;100.00
34586;BME280;20816;50.950;11.108;2023-05-02T03:43:29;98488.72;;;10.64;100.00
34586;BME280;20816;50.950;11.108;2023-05-02T03:45:56;98487.00;;;10.63;100.00
34586;BME280;20816;50.950;11.108;2023-05-02T03:48:23;98490.53;;;10.62;100.00
34586;BME280;20816;50.950;11.108;2023-05-02T03:50:49;98494.97;;;10.60;100.00
34586;BME280;20816;50.950;11.108;2023-05-02T03:53:16;98499.38;;;10.58;100.00
34586;BME280;20816;50.950;11.108;2023-05-02T03:55:42;98502.84;;;10.60;100.00
34586;BME280;20816;50.950;11.108;2023-05-02T03:58:09;98497.47;;;10.64;100.00
34586;BME280;20816;50.950;11.108;2023-05-02T04:00:36;98501.91;;;10.62;100.00
34586;BME280;20816;50.950;11.108;2023-05-02T04:03:03;98505.44;;;10.61;100.00
34586;BME280;20816;50.950;11.108;2023-05-02T04:05:30;98508.09;;;10.60;100.00
34586;BME280;20816;50.950;11.108;2023-05-02T04:07:57;98512.63;;;10.53;100.00
34586;BME280;20816;50.950;11.108;2023-05-02T04:10:23;98513.50;;;10.54;100.00
34586;BME280;20816;50.950;11.108;2023-05-02T04:12:50;98514.19;;;10.62;100.00
34586;BME280;20816;50.950;11.108;2023-05-02T04:15:16;98518.66;;;10.57;100.00
34586;BME280;20816;50.950;11.108;2023-05-02T04:17:43;98523.19;;;10.52;100.00
34586;BME280;20816;50.950;11.108;2023-05-02T04:20:10;98524.09;;;10.51;100.00
34586;BME280;20816;50.950;11.108;2023-05-02T04:22:37;98527.53;;;10.53;100.00
34586;BME280;20816;50.950;11.108;2023-05-02T04:25:05;98532.72;;;10.56;100.00
34586;BME280;20816;50.950;11.108;2023-05-02T04:27:33;98543.16;;;10.59;100.00
34586;BME280;20816;50.950;11.108;2023-05-02T04:29:59;98543.22;;;10.56;100.00
34586;BME280;20816;50.950;11.108;2023-05-02T04:32:27;98544.00;;;10.61;100.00
34586;BME280;20816;50.950;11.108;2023-05-02T04:34:53;98549.13;;;10.67;100.00
34586;BME280;20816;50.950;11.108;2023-05-02T04:37:20;98551.66;;;10.70;100.00
34586;BME280;20816;50.950;11.108;2023-05-02T04:39:47;98561.09;;;10.79;100.00
34586;BME280;20816;50.950;11.108;2023-05-02T04:42:13;98568.84;;;10.85;100.00
34586;BME280;20816;50.950;11.108;2023-05-02T04:44:40;98567.81;;;10.90;100.00
34586;BME280;20816;50.950;11.108;2023-05-02T04:47:06;98568.59;;;10.95;100.00
34586;BME280;20816;50.950;11.108;2023-05-02T04:49:33;98568.44;;;11.02;100.00
34586;BME280;20816;50.950;11.108;2023-05-02T04:52:00;98571.00;;;11.05;99.77
34586;BME280;20816;50.950;11.108;2023-05-02T04:54:26;98572.50;;;11.15;99.71
34586;BME280;20816;50.950;11.108;2023-05-02T04:56:53;98591.06;;;11.09;99.60
34586;BME280;20816;50.950;11.108;2023-05-02T04:59:20;98592.56;;;11.19;99.82
34586;BME280;20816;50.950;11.108;2023-05-02T05:01:46;98593.44;;;11.19;99.24
34586;BME280;20816;50.950;11.108;2023-05-02T05:04:13;98595.13;;;11.22;99.48
34586;BME280;20816;50.950;11.108;2023-05-02T05:06:40;98613.53;;;11.22;99.37
34586;BME280;20816;50.950;11.108;2023-05-02T05:09:06;98618.66;;;11.28;99.33
34586;BME280;20816;50.950;11.108;2023-05-02T05:11:33;98618.66;;;11.28;98.62
34586;BME280;20816;50.950;11.108;2023-05-02T05:14:00;98630.84;;;11.32;99.15
34586;BME280;20816;50.950;11.108;2023-05-02T05:16:29;98630.69;;;11.38;98.82
34586;BME280;20816;50.950;11.108;2023-05-02T05:18:56;98637.72;;;11.38;98.49
34586;BME280;20816;50.950;11.108;2023-05-02T05:21:23;98633.97;;;11.46;99.09
34586;BME280;20816;50.950;11.108;2023-05-02T05:23:49;98643.69;;;11.44;98.32
34586;BME280;20816;50.950;11.108;2023-05-02T05:26:16;98649.94;;;11.40;98.78
34586;BME280;20816;50.950;11.108;2023-05-02T05:28:43;98644.47;;;11.49;98.62
34586;BME280;20816;50.950;11.108;2023-05-02T05:31:11;98645.22;;;11.53;97.30
34586;BME280;20816;50.950;11.108;2023-05-02T05:33:42;98640.78;;;11.57;97.08
34586;BME280;20816;50.950;11.108;2023-05-02T05:36:11;98652.16;;;11.57;97.38
34586;BME280;20816;50.950;11.108;2023-05-02T05:38:37;98654.56;;;11.66;96.48
34586;BME280;20816;50.950;11.108;2023-05-02T05:41:04;98660.41;;;11.77;96.48
34586;BME280;20816;50.950;11.108;2023-05-02T05:43:31;98661.38;;;11.75;96.28
34586;BME280;20816;50.950;11.108;2023-05-02T05:45:58;98660.28;;;11.84;96.99
34586;BME280;20816;50.950;11.108;2023-05-02T05:48:25;98664.25;;;12.00;96.21
34586;BME280;20816;50.950;11.108;2023-05-02T05:50:52;98661.53;;;12.03;95.76
34586;BME280;20816;50.950;11.108;2023-05-02T05:53:18;98665.88;;;12.05;96.27
34586;BME280;20816;50.950;11.108;2023-05-02T05:55:45;98667.59;;;12.06;95.71
34586;BME280;20816;50.950;11.108;2023-05-02T05:58:12;98677.72;;;12.22;95.20
34586;BME280;20816;50.950;11.108;2023-05-02T06:00:39;98678.53;;;12.24;94.06
34586;BME280;20816;50.950;11.108;2023-05-02T06:03:06;98683.94;;;12.50;93.98
34586;BME280;20816;50.950;11.108;2023-05-02T06:05:35;98682.59;;;12.67;92.45
34586;BME280;20816;50.950;11.108;2023-05-02T06:08:01;98688.34;;;12.81;91.58
34586;BME280;20816;50.950;11.108;2023-05-02T06:10:29;98684.09;;;12.75;92.32
34586;BME280;20816;50.950;11.108;2023-05-02T06:12:56;98697.75;;;12.89;92.31
34586;BME280;20816;50.950;11.108;2023-05-02T06:15:23;98700.06;;;13.00;91.36
34586;BME280;20816;50.950;11.108;2023-05-02T06:17:50;98703.53;;;13.02;90.61
34586;BME280;20816;50.950;11.108;2023-05-02T06:20:17;98710.16;;;13.15;89.96
34586;BME280;20816;50.950;11.108;2023-05-02T06:22:44;98705.41;;;13.28;90.71
34586;BME280;20816;50.950;11.108;2023-05-02T06:25:11;98715.34;;;13.48;89.05
34586;BME280;20816;50.950;11.108;2023-05-02T06:27:38;98716.38;;;13.70;87.66
34586;BME280;20816;50.950;11.108;2023-05-02T06:30:05;98717.91;;;13.78;86.36
34586;BME280;20816;50.950;11.108;2023-05-02T06:32:31;98724.31;;;13.70;86.65
34586;BME280;20816;50.950;11.108;2023-05-02T06:34:58;98734.50;;;13.55;88.53
34586;BME280;20816;50.950;11.108;2023-05-02T06:37:25;98735.16;;;13.33;91.16
34586;BME280;20816;50.950;11.108;2023-05-02T06:39:51;98740.22;;;13.11;93.07
34586;BME280;20816;50.950;11.108;2023-05-02T06:42:18;98742.16;;;13.05;94.56
34586;BME280;20816;50.950;11.108;2023-05-02T06:44:44;98737.09;;;12.97;96.48
34586;BME280;20816;50.950;11.108;2023-05-02T06:47:11;98743.03;;;12.74;97.59
34586;BME280;20816;50.950;11.108;2023-05-02T06:49:38;98755.78;;;12.58;98.33
34586;BME280;20816;50.950;11.108;2023-05-02T06:52:04;98753.03;;;12.30;98.75
34586;BME280;20816;50.950;11.108;2023-05-02T06:54:31;98760.97;;;12.29;98.76
34586;BME280;20816;50.950;11.108;2023-05-02T06:56:58;98758.41;;;12.26;100.00
34586;BME280;20816;50.950;11.108;2023-05-02T06:59:25;98765.16;;;12.02;100.00
34586;BME280;20816;50.950;11.108;2023-05-02T07:01:51;98768.09;;;11.91;100.00
34586;BME280;20816;50.950;11.108;2023-05-02T07:04:18;98777.34;;;12.07;100.00
34586;BME280;20816;50.950;11.108;2023-05-02T07:06:45;98771.31;;;12.02;100.00
34586;BME280;20816;50.950;11.108;2023-05-02T07:09:12;98784.00;;;12.22;100.00
34586;BME280;20816;50.950;11.108;2023-05-02T07:11:38;98785.03;;;12.49;100.00
34586;BME280;20816;50.950;11.108;2023-05-02T07:14:05;98780.84;;;12.42;100.00
34586;BME280;20816;50.950;11.108;2023-05-02T07:16:31;98782.00;;;12.65;100.00
34586;BME280;20816;50.950;11.108;2023-05-02T07:18:58;98783.22;;;12.84;100.00
34586;BME280;20816;50.950;11.108;2023-05-02T07:21:25;98784.22;;;13.09;97.93
34586;BME280;20816;50.950;11.108;2023-05-02T07:23:52;98783.25;;;13.43;95.62
34586;BME280;20816;50.950;11.108;2023-05-02T07:26:20;98792.19;;;13.39;96.81
34586;BME280;20816;50.950;11.108;2023-05-02T07:28:48;98794.38;;;13.25;96.23
34586;BME280;20816;50.950;11.108;2023-05-02T07:31:14;98795.81;;;13.35;95.94
34586;BME280;20816;50.950;11.108;2023-05-02T07:33:44;98798.50;;;13.63;95.65
34586;BME280;20816;50.950;11.108;2023-05-02T07:36:11;98799.91;;;13.46;94.12
34586;BME280;20816;50.950;11.108;2023-05-02T07:38:38;98801.22;;;13.32;94.30
34586;BME280;20816;50.950;11.108;2023-05-02T07:41:05;98806.75;;;13.23;94.30
34586;BME280;20816;50.950;11.108;2023-05-02T07:43:32;98809.09;;;13.33;94.36
34586;BME280;20816;50.950;11.108;2023-05-02T07:46:03;98808.31;;;13.30;93.34
34586;BME280;20816;50.950;11.108;2023-05-02T07:48:30;98806.50;;;13.60;93.73
34586;BME280;20816;50.950;11.108;2023-05-02T07:51:05;98812.00;;;13.82;93.90
34586;BME280;20816;50.950;11.108;2023-05-02T07:53:32;98808.56;;;13.50;94.61
34586;BME280;20816;50.950;11.108;2023-05-02T07:55:59;98820.34;;;13.40;94.20
34586;BME280;20816;50.950;11.108;2023-05-02T07:58:26;98815.91;;;13.09;93.33
34586;BME280;20816;50.950;11.108;2023-05-02T08:00:53;98817.09;;;13.30;95.08
34586;BME280;20816;50.950;11.108;2023-05-02T08:03:20;98820.50;;;13.34;93.57
34586;BME280;20816;50.950;11.108;2023-05-02T08:05:47;98824.66;;;13.11;93.41
34586;BME280;20816;50.950;11.108;2023-05-02T08:08:13;98828.44;;;13.01;93.97
34586;BME280;20816;50.950;11.108;2023-05-02T08:10:40;98834.31;;;13.12;94.05
34586;BME280;20816;50.950;11.108;2023-05-02T08:13:07;98840.50;;;13.11;94.57
34586;BME280;20816;50.950;11.108;2023-05-02T08:15:33;98842.03;;;13.18;94.44
34586;BME280;20816;50.950;11.108;2023-05-02T08:18:00;98837.41;;;13.28;93.97
34586;BME280;20816;50.950;11.108;2023-05-02T08:20:27;98843.91;;;13.15;94.54
34586;BME280;20816;50.950;11.108;2023-05-02T08:22:53;98844.00;;;13.12;92.91
34586;BME280;20816;50.950;11.108;2023-05-02T08:25:20;98861.63;;;13.11;93.69
34586;BME280;20816;50.950;11.108;2023-05-02T08:27:47;98851.72;;;13.18;93.12
34586;BME280;20816;50.950;11.108;2023-05-02T08:30:14;98859.03;;;13.41;93.26
34586;BME280;20816;50.950;11.108;2023-05-02T08:32:40;98856.81;;;13.57;92.38
34586;BME280;20816;50.950;11.108;2023-05-02T08:35:07;98850.75;;;13.53;92.51
34586;BME280;20816;50.950;11.108;2023-05-02T08:37:34;98853.81;;;13.67;90.70
34586;BME280;20816;50.950;11.108;2023-05-02T08:40:01;98853.41;;;13.81;90.06
34586;BME280;20816;50.950;11.108;2023-05-02T08:42:29;98858.84;;;13.77;89.93
34586;BME280;20816;50.950;11.108;2023-05-02T08:44:58;98861.06;;;13.90;89.59
34586;BME280;20816;50.950;11.108;2023-05-02T08:47:26;98864.94;;;14.07;88.32
34586;BME280;20816;50.950;11.108;2023-05-02T08:49:54;98858.50;;;14.15;88.12
34586;BME280;20816;50.950;11.108;2023-05-02T08:52:22;98861.16;;;14.15;88.19
34586;BME280;20816;50.950;11.108;2023-05-02T08:54:50;98867.09;;;14.22;88.28
34586;BME280;20816;50.950;11.108;2023-05-02T08:57:17;98872.19;;;14.28;86.92
34586;BME280;20816;50.950;11.108;2023-05-02T08:59:44;98869.44;;;14.31;87.15
34586;BME280;20816;50.950;11.108;2023-05-02T09:02:27;98881.22;;;14.49;86.79
34586;BME280;20816;50.950;11.108;2023-05-02T09:05:05;98872.03;;;14.61;85.97
34586;BME280;20816;50.950;11.108;2023-05-02T09:07:47;98872.06;;;14.85;84.04
34586;BME280;20816;50.950;11.108;2023-05-02T09:10:14;98882.00;;;15.04;84.62
34586;BME280;20816;50.950;11.108;2023-05-02T09:12:41;98887.50;;;14.98;84.78
34586;BME280;20816;50.950;11.108;2023-05-02T09:15:13;98882.19;;;14.98;85.33
34586;BME280;20816;50.950;11.108;2023-05-02T09:17:45;98884.56;;;14.80;85.49
34586;BME280;20816;50.950;11.108;2023-05-02T09:20:13;98891.91;;;14.72;86.85
34586;BME280;20816;50.950;11.108;2023-05-02T09:22:51;98892.13;;;14.66;85.81
34586;BME280;20816;50.950;11.108;2023-05-02T09:25:18;98904.22;;;14.73;86.15
34586;BME280;20816;50.950;11.108;2023-05-02T09:27:52;98898.84;;;14.76;85.40
34586;BME280;20816;50.950;11.108;2023-05-02T09:30:23;98891.72;;;14.52;86.81
34586;BME280;20816;50.950;11.108;2023-05-02T09:32:51;98887.28;;;14.79;84.26
34586;BME280;20816;50.950;11.108;2023-05-02T09:35:21;98889.53;;;14.90;83.96
34586;BME280;20816;50.950;11.108;2023-05-02T09:40:18;98889.34;;;14.96;83.73
34586;BME280;20816;50.950;11.108;2023-05-02T09:42:45;98879.13;;;15.10;81.18
34586;BME280;20816;50.950;11.108;2023-05-02T09:45:22;98894.09;;;15.11;81.44
34586;BME280;20816;50.950;11.108;2023-05-02T09:47:50;98896.03;;;15.31;81.10
34586;BME280;20816;50.950;11.108;2023-05-02T09:50:36;98893.00;;;15.41;81.25
34586;BME280;20816;50.950;11.108;2023-05-02T09:53:07;98901.88;;;15.65;79.83
34586;BME280;20816;50.950;11.108;2023-05-02T09:55:35;98902.63;;;15.44;81.11
34586;BME280;20816;50.950;11.108;2023-05-02T09:58:02;98900.81;;;15.45;81.19
34586;BME280;20816;50.950;11.108;2023-05-02T10:00:42;98903.94;;;15.32;80.78
34586;BME280;20816;50.950;11.108;2023-05-02T10:03:15;98907.72;;;15.25;80.77
34586;BME280;20816;50.950;11.108;2023-05-02T10:05:44;98901.16;;;15.84;78.41
34586;BME280;20816;50.950;11.108;2023-05-02T10:08:12;98904.78;;;16.05;77.09
34586;BME280;20816;50.950;11.108;2023-05-02T10:10:40;98904.47;;;16.78;74.56
34586;BME280;20816;50.950;11.108;2023-05-02T10:13:11;98905.03;;;17.27;74.14
34586;BME280;20816;50.950;11.108;2023-05-02T10:15:42;98901.06;;;17.76;72.29
34586;BME280;20816;50.950;11.108;2023-05-02T10:18:18;98896.94;;;18.26;70.04
34586;BME280;20816;50.950;11.108;2023-05-02T10:21:02;98896.09;;;19.13;67.83
34586;BME280;20816;50.950;11.108;2023-05-02T10:23:31;98890.00;;;20.26;64.82
34586;BME280;20816;50.950;11.108;2023-05-02T10:25:59;98896.91;;;20.62;62.57
34586;BME280;20816;50.950;11.108;2023-05-02T10:28:26;98892.84;;;21.15;62.41
34586;BME280;20816;50.950;11.108;2023-05-02T10:30:53;98885.38;;;20.46;63.18
34586;BME280;20816;50.950;11.108;2023-05-02T10:33:21;98890.00;;;19.11;66.12
34586;BME280;20816;50.950;11.108;2023-05-02T10:35:48;98910.63;;;18.18;69.78
34586;BME280;20816;50.950;11.108;2023-05-02T10:38:18;98902.28;;;17.88;70.93
34586;BME280;20816;50.950;11.108;2023-05-02T10:41:02;98912.16;;;16.84;79.95
34586;BME280;20816;50.950;11.108;2023-05-02T10:43:33;98913.72;;;15.79;84.33
34586;BME280;20816;50.950;11.108;2023-05-02T10:46:00;98921.47;;;14.85;89.73
34586;BME280;20816;50.950;11.108;2023-05-02T10:48:29;98925.81;;;14.61;92.05
34586;BME280;20816;50.950;11.108;2023-05-02T10:50:58;98922.94;;;14.94;95.98
34586;BME280;20816;50.950;11.108;2023-05-02T10:53:34;98928.47;;;15.12;95.03
34586;BME280;20816;50.950;11.108;2023-05-02T10:56:15;98927.44;;;15.17;94.12
34586;BME280;20816;50.950;11.108;2023-05-02T10:58:44;98929.56;;;15.07;93.32
34586;BME280;20816;50.950;11.108;2023-05-02T11:04:05;98927.06;;;15.27;95.24
34586;BME280;20816;50.950;11.108;2023-05-02T11:06:34;98937.50;;;15.07;96.13
34586;BME280;20816;50.950;11.108;2023-05-02T11:11:44;98951.75;;;14.76;93.06
34586;BME280;20816;50.950;11.108;2023-05-02T11:19:28;98951.84;;;14.47;92.67
34586;BME280;20816;50.950;11.108;2023-05-02T11:24:45;98960.66;;;13.57;92.86
34586;BME280;20816;50.950;11.108;2023-05-02T11:29:56;98965.75;;;13.32;96.88
34586;BME280;20816;50.950;11.108;2023-05-02T11:32:26;98963.97;;;13.33;98.23
34586;BME280;20816;50.950;11.108;2023-05-02T11:35:19;98965.25;;;13.16;100.00
34586;BME280;20816;50.950;11.108;2023-05-02T11:37:59;98975.31;;;13.02;99.56
34586;BME280;20816;50.950;11.108;2023-05-02T11:40:28;98968.19;;;13.06;100.00
34586;BME280;20816;50.950;11.108;2023-05-02T11:43:16;98962.06;;;13.05;100.00
34586;BME280;20816;50.950;11.108;2023-05-02T11:45:43;98967.00;;;13.17;100.00
34586;BME280;20816;50.950;11.108;2023-05-02T11:48:16;98952.84;;;13.22;100.00
34586;BME280;20816;50.950;11.108;2023-05-02T11:50:54;98954.91;;;13.43;99.77
34586;BME280;20816;50.950;11.108;2023-05-02T11:53:56;98958.19;;;13.51;97.78
34586;BME280;20816;50.950;11.108;2023-05-02T11:56:23;98960.97;;;13.78;99.86
34586;BME280;20816;50.950;11.108;2023-05-02T11:58:57;98963.75;;;14.02;100.00
34586;BME280;20816;50.950;11.108;2023-05-02T12:01:25;98974.81;;;14.15;100.00
34586;BME280;20816;50.950;11.108;2023-05-02T12:04:06;98977.91;;;14.01;100.00
34586;BME280;20816;50.950;11.108;2023-05-02T12:06:33;98978.06;;;13.95;100.00
34586;BME280;20816;50.950;11.108;2023-05-02T12:09:13;98983.53;;;13.58;100.00
34586;BME280;20816;50.950;11.108;2023-05-02T12:11:43;98996.56;;;13.32;100.00
34586;BME280;20816;50.950;11.108;2023-05-02T12:14:10;98999.47;;;13.23;100.00
34586;BME280;20816;50.950;11.108;2023-05-02T12:16:36;98996.56;;;13.32;100.00
34586;BME280;20816;50.950;11.108;2023-05-02T12:19:03;98994.94;;;13.28;100.00
34586;BME280;20816;50.950;11.108;2023-05-02T12:21:31;98997.72;;;13.22;100.00
34586;BME280;20816;50.950;11.108;2023-05-02T12:24:00;99004.75;;;13.23;100.00
34586;BME280;20816;50.950;11.108;2023-05-02T12:26:27;99007.28;;;13.26;100.00
34586;BME280;20816;50.950;11.108;2023-05-02T12:29:01;99009.94;;;13.58;100.00
34586;BME280;20816;50.950;11.108;2023-05-02T12:31:33;99012.81;;;13.82;100.00
34586;BME280;20816;50.950;11.108;2023-05-02T12:34:00;99011.47;;;13.98;100.00
34586;BME280;20816;50.950;11.108;2023-05-02T12:36:27;99018.78;;;14.19;100.00
34586;BME280;20816;50.950;11.108;2023-05-02T12:38:57;99015.84;;;13.99;100.00
34586;BME280;20816;50.950;11.108;2023-05-02T12:41:33;99016.09;;;13.90;100.00
34586;BME280;20816;50.950;11.108;2023-05-02T12:44:05;99027.44;;;13.62;100.00
34586;BME280;20816;50.950;11.108;2023-05-02T12:46:34;99026.22;;;13.74;100.00
34586;BME280;20816;50.950;11.108;2023-05-02T12:51:28;99033.59;;;13.63;100.00
34586;BME280;20816;50.950;11.108;2023-05-02T12:53:57;99032.97;;;13.86;100.00
34586;BME280;20816;50.950;11.108;2023-05-02T12:56:23;99034.25;;;14.02;100.00
34586;BME280;20816;50.950;11.108;2023-05-02T12:58:52;99039.75;;;14.25;100.00
34586;BME280;20816;50.950;11.108;2023-05-02T13:01:19;99045.47;;;14.10;100.00
34586;BME280;20816;50.950;11.108;2023-05-02T13:03:46;99038.53;;;14.06;100.00
34586;BME280;20816;50.950;11.108;2023-05-02T13:06:18;99041.53;;;13.94;100.00
34586;BME280;20816;50.950;11.108;2023-05-02T13:08:45;99047.81;;;13.90;100.00
34586;BME280;20816;50.950;11.108;2023-05-02T13:11:11;99050.31;;;13.63;100.00
34586;BME280;20816;50.950;11.108;2023-05-02T13:13:40;99050.22;;;13.66;100.00
34586;BME280;20816;50.950;11.108;2023-05-02T13:16:07;99049.16;;;13.73;100.00
34586;BME280;20816;50.950;11.108;2023-05-02T13:18:37;99061.38;;;13.45;100.00
34586;BME280;20816;50.950;11.108;2023-05-02T13:21:04;99064.69;;;13.53;100.00
34586;BME280;20816;50.950;11.108;2023-05-02T13:23:31;99057.19;;;13.36;100.00
34586;BME280;20816;50.950;11.108;2023-05-02T13:25:57;99061.63;;;13.36;100.00
34586;BME280;20816;50.950;11.108;2023-05-02T13:28:24;99070.09;;;13.47;100.00
34586;BME280;20816;50.950;11.108;2023-05-02T13:30:51;99077.94;;;13.50;100.00
34586;BME280;20816;50.950;11.108;2023-05-02T13:33:17;99077.94;;;13.50;100.00
34586;BME280;20816;50.950;11.108;2023-05-02T13:35:44;99076.69;;;13.31;100.00
34586;BME280;20816;50.950;11.108;2023-05-02T13:38:11;99086.16;;;13.39;100.00
34586;BME280;20816;50.950;11.108;2023-05-02T13:40:38;99082.78;;;13.33;100.00